Time;durP1;ratioP1;P1;durP2;ratioP2;P2;SDS_P1;SDS_P2;PMS_P1;PMS_P2;Temp;Humidity;BMP_temperature;BMP_pressure;BME280_temperature;BME280_humidity;BME280_pressure;Samples;Min_cycle;Max_cycle;Signal;HPM_P1;HPM_P2
2024/01/28 00:00:45;;;;;;;19.65;9.07;;;3.40;99.90;;;;;;5029678;28;20088;-82
2024/01/28 00:03:11;;;;;;;21.33;9.95;;;3.40;99.90;;;;;;5033021;28;20045;-82
2024/01/28 00:05:38;;;;;;;18.50;9.30;;;3.60;99.90;;;;;;5041566;28;20453;-82
2024/01/28 00:08:05;;;;;;;21.75;9.50;;;3.40;99.90;;;;;;5023807;28;20045;-82
2024/01/28 00:10:31;;;;;;;22.40;9.45;;;3.40;99.90;;;;;;5021876;28;20046;-82
2024/01/28 00:12:57;;;;;;;19.33;9.35;;;3.40;99.90;;;;;;5024203;28;20041;-82
2024/01/28 00:15:23;;;;;;;21.65;10.10;;;3.60;99.90;;;;;;5020614;28;20317;-82
2024/01/28 00:17:49;;;;;;;18.33;9.43;;;3.40;99.90;;;;;;5022477;28;20041;-82
2024/01/28 00:20:15;;;;;;;23.65;9.60;;;3.40;99.90;;;;;;5017458;28;20041;-82
2024/01/28 00:22:41;;;;;;;22.83;8.88;;;3.40;99.90;;;;;;5066729;28;20501;-82
2024/01/28 00:25:07;;;;;;;34.05;10.32;;;3.30;99.90;;;;;;5034274;28;20037;-82
2024/01/28 00:27:32;;;;;;;19.70;8.52;;;3.30;99.90;;;;;;5026412;28;20053;-82
2024/01/28 00:29:58;;;;;;;20.35;9.60;;;3.30;99.90;;;;;;5027010;28;20038;-82
2024/01/28 00:32:24;;;;;;;24.83;9.65;;;3.20;99.90;;;;;;5025235;28;20034;-82
2024/01/28 00:34:49;;;;;;;23.48;9.20;;;3.20;99.90;;;;;;5028667;28;20042;-82
2024/01/28 00:37:15;;;;;;;18.67;8.95;;;3.10;99.90;;;;;;5030283;28;20517;-82
2024/01/28 00:39:41;;;;;;;28.17;9.43;;;3.20;99.90;;;;;;5026745;28;20367;-81
2024/01/28 00:42:06;;;;;;;19.83;7.95;;;3.10;99.90;;;;;;5059289;28;20042;-82
2024/01/28 00:44:32;;;;;;;20.30;9.00;;;3.30;99.90;;;;;;5059705;28;20446;-82
2024/01/28 00:46:58;;;;;;;18.98;9.52;;;3.20;99.90;;;;;;5029521;28;20323;-82
2024/01/28 00:49:29;;;;;;;15.18;6.95;;;3.20;99.90;;;;;;5047070;28;20052;-82
2024/01/28 00:51:59;;;;;;;18.80;8.77;;;3.10;99.90;;;;;;5021518;28;20045;-82
2024/01/28 00:54:25;;;;;;;22.80;9.52;;;3.10;99.90;;;;;;5028496;28;20408;-81
2024/01/28 00:56:56;;;;;;;24.67;9.07;;;3.00;99.90;;;;;;5028276;28;20033;-82
2024/01/28 00:59:22;;;;;;;20.52;9.10;;;3.00;99.90;;;;;;5028564;28;20037;-82
2024/01/28 01:01:48;;;;;;;20.38;8.80;;;3.10;99.90;;;;;;5027038;28;20049;-82
2024/01/28 01:04:13;;;;;;;20.95;8.35;;;3.00;99.90;;;;;;5048592;28;20422;-82
2024/01/28 01:06:43;;;;;;;23.17;8.57;;;3.00;99.90;;;;;;5029143;28;20410;-81
2024/01/28 01:09:09;;;;;;;21.38;8.93;;;3.00;99.90;;;;;;5052065;28;20045;-81
2024/01/28 01:11:35;;;;;;;21.23;7.85;;;3.00;99.90;;;;;;5031848;28;20034;-82
2024/01/28 01:14:01;;;;;;;20.23;8.70;;;3.00;99.90;;;;;;5021361;28;20171;-82
2024/01/28 01:16:27;;;;;;;18.17;8.13;;;2.90;99.90;;;;;;5028957;28;20037;-82
2024/01/28 01:18:53;;;;;;;21.10;8.43;;;3.00;99.90;;;;;;5028989;28;20049;-82
2024/01/28 01:21:19;;;;;;;17.38;7.75;;;2.90;99.90;;;;;;5030426;28;20124;-82
2024/01/28 01:23:45;;;;;;;21.35;8.20;;;2.90;99.90;;;;;;5032002;28;20531;-76
2024/01/28 01:26:10;;;;;;;20.10;8.35;;;3.00;99.90;;;;;;5032150;28;20037;-81
2024/01/28 01:28:36;;;;;;;18.45;8.05;;;3.10;99.90;;;;;;5034621;28;20073;-84
2024/01/28 01:31:03;;;;;;;18.05;8.38;;;2.90;99.90;;;;;;5034769;28;20120;-82
2024/01/28 01:33:29;;;;;;;17.48;7.53;;;2.90;99.90;;;;;;5028348;28;20048;-82
2024/01/28 01:35:55;;;;;;;17.40;7.75;;;2.90;99.90;;;;;;5027115;28;20394;-81
2024/01/28 01:38:21;;;;;;;19.25;7.75;;;2.90;99.90;;;;;;5033735;28;20118;-81
2024/01/28 01:40:47;;;;;;;19.02;7.63;;;2.90;99.90;;;;;;5033238;28;20045;-76
2024/01/28 01:43:15;;;;;;;21.50;7.78;;;3.00;99.90;;;;;;5033514;28;20039;-82
2024/01/28 01:45:42;;;;;;;22.38;8.45;;;3.00;99.90;;;;;;5061269;28;20115;-81
2024/01/28 01:48:12;;;;;;;16.23;7.00;;;3.00;99.90;;;;;;5031891;28;20050;-81
2024/01/28 01:50:40;;;;;;;18.55;6.85;;;3.00;99.90;;;;;;5016041;28;20075;-82
2024/01/28 01:53:08;;;;;;;19.85;8.30;;;3.40;99.90;;;;;;5031287;28;20116;-82
2024/01/28 01:55:35;;;;;;;16.95;7.45;;;3.00;99.90;;;;;;5031711;28;20431;-82
2024/01/28 01:58:02;;;;;;;23.40;7.60;;;3.00;99.90;;;;;;5032548;28;20045;-82
2024/01/28 02:00:28;;;;;;;22.08;8.27;;;2.90;99.90;;;;;;5031379;28;20126;-82
2024/01/28 02:02:54;;;;;;;19.33;8.43;;;3.00;99.90;;;;;;5032716;28;20152;-81
2024/01/28 02:05:19;;;;;;;18.83;8.73;;;2.90;99.90;;;;;;5025921;28;20121;-82
2024/01/28 02:07:45;;;;;;;21.10;8.70;;;2.90;99.90;;;;;;5026666;28;20049;-82
2024/01/28 02:10:11;;;;;;;12.98;7.55;;;2.90;99.90;;;;;;5030931;28;20279;-82
2024/01/28 02:12:38;;;;;;;16.80;6.97;;;2.90;99.90;;;;;;5033098;28;20048;-82
2024/01/28 02:15:11;;;;;;;23.17;8.57;;;2.90;99.90;;;;;;5047116;28;20041;-82
2024/01/28 02:17:37;;;;;;;20.35;8.00;;;3.00;99.90;;;;;;5055637;28;20045;-82
2024/01/28 02:20:04;;;;;;;20.00;8.20;;;2.90;99.90;;;;;;5031005;28;20049;-82
2024/01/28 02:22:30;;;;;;;18.50;7.28;;;3.00;99.90;;;;;;5031652;28;20363;-82
2024/01/28 02:24:59;;;;;;;19.48;7.78;;;3.00;99.90;;;;;;5032009;28;20053;-78
2024/01/28 02:27:24;;;;;;;20.30;7.43;;;3.00;99.90;;;;;;5031021;28;20053;-82
2024/01/28 02:29:50;;;;;;;19.15;7.55;;;3.00;99.90;;;;;;5015345;28;20053;-83
2024/01/28 02:32:17;;;;;;;13.43;7.38;;;3.00;99.90;;;;;;5031256;28;20053;-82
2024/01/28 02:34:44;;;;;;;20.35;7.75;;;3.10;99.90;;;;;;5064057;28;20049;-82
2024/01/28 02:37:10;;;;;;;16.73;7.53;;;3.10;99.90;;;;;;5062113;28;20549;-82
2024/01/28 02:39:39;;;;;;;20.45;8.45;;;3.30;99.90;;;;;;5048292;28;20118;-81
2024/01/28 02:42:06;;;;;;;15.98;6.82;;;3.10;99.90;;;;;;5031819;28;20075;-82
2024/01/28 02:44:32;;;;;;;17.50;7.72;;;3.00;99.90;;;;;;5047198;28;20076;-83
2024/01/28 02:47:01;;;;;;;14.52;7.15;;;3.10;99.90;;;;;;5012322;28;20060;-76
2024/01/28 02:49:26;;;;;;;18.55;8.80;;;3.10;99.90;;;;;;5030890;28;20080;-82
2024/01/28 02:51:53;;;;;;;13.98;8.45;;;3.10;99.90;;;;;;5030423;28;20042;-80
2024/01/28 02:54:19;;;;;;;14.15;8.35;;;3.30;99.90;;;;;;5031652;28;20360;-82
2024/01/28 02:56:45;;;;;;;27.90;9.27;;;3.20;99.90;;;;;;5064159;28;20076;-82
2024/01/28 02:59:13;;;;;;;19.85;10.13;;;3.00;99.90;;;;;;5031549;28;20080;-82
2024/01/28 03:01:48;;;;;;;21.15;7.60;;;3.00;99.90;;;;;;5026052;28;20050;-82
2024/01/28 03:04:14;;;;;;;17.83;8.68;;;3.00;99.90;;;;;;5025286;28;20044;-82
2024/01/28 03:06:40;;;;;;;23.35;8.98;;;3.00;99.90;;;;;;5063110;28;20423;-82
2024/01/28 03:09:07;;;;;;;19.25;9.50;;;3.00;99.90;;;;;;5063512;28;21398;-82
2024/01/28 03:11:33;;;;;;;19.95;9.20;;;3.00;99.90;;;;;;5042724;28;20144;-83
2024/01/28 03:13:58;;;;;;;16.42;7.28;;;3.10;99.90;;;;;;5030641;28;20033;-82
2024/01/28 03:16:24;;;;;;;16.95;8.88;;;3.00;99.90;;;;;;5031058;28;20045;-82
2024/01/28 03:18:50;;;;;;;20.60;9.48;;;3.10;99.90;;;;;;5030557;28;20041;-83
2024/01/28 03:21:16;;;;;;;22.45;9.57;;;3.10;99.90;;;;;;5028075;28;20501;-83
2024/01/28 03:23:41;;;;;;;25.60;9.98;;;3.10;99.90;;;;;;5007022;28;20049;-82
2024/01/28 03:26:10;;;;;;;15.35;7.63;;;3.10;99.90;;;;;;4997348;28;20045;-82
2024/01/28 03:28:35;;;;;;;24.20;9.93;;;3.10;99.90;;;;;;5047481;28;20053;-82
2024/01/28 03:31:01;;;;;;;19.65;8.27;;;3.10;99.90;;;;;;5030100;28;20044;-82
2024/01/28 03:33:27;;;;;;;21.05;8.88;;;3.10;99.90;;;;;;5062799;28;20037;-80
2024/01/28 03:35:52;;;;;;;22.48;9.70;;;3.40;99.90;;;;;;5030195;28;20045;-82
2024/01/28 03:38:18;;;;;;;19.35;9.27;;;3.20;99.90;;;;;;5030145;28;20045;-82
2024/01/28 03:40:44;;;;;;;18.60;9.20;;;3.30;99.90;;;;;;5030250;28;20037;-82
2024/01/28 03:43:10;;;;;;;19.60;9.23;;;3.10;99.90;;;;;;5028247;28;20398;-81
2024/01/28 03:45:35;;;;;;;20.75;8.60;;;3.10;99.90;;;;;;5027828;28;20053;-82
2024/01/28 03:48:01;;;;;;;15.73;7.95;;;3.10;99.90;;;;;;5030415;28;20042;-82
2024/01/28 03:50:27;;;;;;;19.00;9.05;;;3.10;99.90;;;;;;5029927;28;20041;-82
2024/01/28 03:52:52;;;;;;;18.80;8.65;;;3.30;99.90;;;;;;5034349;28;20499;-82
2024/01/28 03:55:18;;;;;;;20.20;8.13;;;3.10;99.90;;;;;;5030585;28;20073;-82
2024/01/28 03:57:44;;;;;;;24.75;9.55;;;3.10;99.90;;;;;;5062940;28;20360;-82
2024/01/28 04:00:11;;;;;;;17.17;9.02;;;3.00;99.90;;;;;;5024881;28;20053;-81
2024/01/28 04:02:38;;;;;;;15.48;7.95;;;3.10;99.90;;;;;;5022986;28;20128;-82
2024/01/28 04:05:04;;;;;;;20.38;9.00;;;3.00;99.90;;;;;;5026291;28;20387;-82
2024/01/28 04:07:30;;;;;;;21.25;9.48;;;3.00;99.90;;;;;;5027246;28;20709;-82
2024/01/28 04:09:55;;;;;;;23.27;9.50;;;3.10;99.90;;;;;;5025828;28;20092;-81
2024/01/28 04:12:22;;;;;;;14.10;8.52;;;3.00;99.90;;;;;;5043100;28;20471;-82
2024/01/28 04:14:48;;;;;;;19.45;8.48;;;3.00;99.90;;;;;;5022340;28;20450;-82
2024/01/28 04:17:13;;;;;;;18.02;9.00;;;3.00;99.90;;;;;;5029553;28;20125;-82
2024/01/28 04:19:39;;;;;;;17.83;8.40;;;3.00;99.90;;;;;;5031671;28;20103;-82
2024/01/28 04:22:07;;;;;;;18.65;8.45;;;3.20;99.90;;;;;;5030336;28;20422;-82
2024/01/28 04:24:32;;;;;;;15.68;8.27;;;3.00;99.90;;;;;;5043600;28;20801;-83
2024/01/28 04:26:59;;;;;;;20.70;9.60;;;2.90;99.90;;;;;;4993668;28;20096;-82
2024/01/28 04:29:24;;;;;;;17.38;8.98;;;2.90;99.90;;;;;;5028248;28;20037;-82
2024/01/28 04:31:50;;;;;;;23.48;7.80;;;2.90;99.90;;;;;;5032795;28;20439;-82
2024/01/28 04:34:16;;;;;;;18.55;8.63;;;2.90;99.90;;;;;;5032943;28;20112;-82
2024/01/28 04:36:41;;;;;;;19.02;8.45;;;2.90;99.90;;;;;;5027648;28;20072;-82
2024/01/28 04:39:09;;;;;;;22.33;8.20;;;2.90;99.90;;;;;;5013531;28;20061;-82
2024/01/28 04:41:34;;;;;;;21.63;8.60;;;2.90;99.90;;;;;;5024290;28;20067;-83
2024/01/28 04:44:00;;;;;;;16.58;6.65;;;2.90;99.90;;;;;;5034310;28;20467;-82
2024/01/28 04:46:26;;;;;;;14.93;8.27;;;2.90;99.90;;;;;;5032414;28;20052;-82
2024/01/28 04:48:51;;;;;;;18.20;8.77;;;2.80;99.90;;;;;;5033374;28;20041;-82
2024/01/28 04:51:17;;;;;;;20.95;8.93;;;2.80;99.90;;;;;;5033026;28;20057;-81
2024/01/28 04:53:43;;;;;;;21.67;9.20;;;2.90;99.90;;;;;;5033745;28;20088;-82
2024/01/28 04:56:10;;;;;;;21.15;9.10;;;2.90;99.90;;;;;;5032736;28;20132;-82
2024/01/28 04:58:36;;;;;;;18.23;8.77;;;2.70;99.90;;;;;;5033920;28;20061;-82
2024/01/28 05:01:02;;;;;;;18.20;8.35;;;2.70;99.90;;;;;;5048877;28;20045;-82
2024/01/28 05:03:27;;;;;;;20.30;7.93;;;2.70;99.90;;;;;;5032142;28;20152;-82
2024/01/28 05:05:53;;;;;;;17.05;7.70;;;2.70;99.90;;;;;;5033017;28;20037;-82
2024/01/28 05:08:19;;;;;;;18.67;8.80;;;2.70;99.90;;;;;;5032014;28;20064;-77
2024/01/28 05:10:44;;;;;;;18.45;7.68;;;2.60;99.90;;;;;;5066274;28;20053;-82
2024/01/28 05:13:10;;;;;;;21.30;8.02;;;2.60;99.90;;;;;;5032408;28;20056;-82
2024/01/28 05:15:35;;;;;;;17.05;8.68;;;2.60;99.90;;;;;;5033629;28;20084;-82
2024/01/28 05:18:01;;;;;;;20.17;8.63;;;2.60;99.90;;;;;;5048385;28;20083;-82
2024/01/28 05:20:27;;;;;;;21.15;8.88;;;2.50;99.90;;;;;;5033535;28;20045;-82
2024/01/28 05:22:52;;;;;;;16.23;7.95;;;2.90;99.90;;;;;;5032485;28;20044;-82
2024/01/28 05:25:18;;;;;;;17.17;8.57;;;2.50;99.90;;;;;;5032829;28;20467;-82
2024/01/28 05:27:44;;;;;;;20.17;8.60;;;2.50;99.90;;;;;;5029968;28;20076;-82
2024/01/28 05:30:10;;;;;;;18.38;8.45;;;2.50;99.90;;;;;;5066090;28;20080;-82
2024/01/28 05:32:36;;;;;;;23.70;8.40;;;2.50;99.90;;;;;;5033101;28;20064;-82
2024/01/28 05:35:03;;;;;;;20.35;8.73;;;2.50;99.90;;;;;;5015953;28;20045;-82
2024/01/28 05:37:29;;;;;;;19.77;8.40;;;2.50;99.90;;;;;;5032089;28;20050;-82
2024/01/28 05:39:56;;;;;;;20.20;9.18;;;2.40;99.90;;;;;;5032168;28;20045;-84
2024/01/28 05:42:22;;;;;;;17.42;9.50;;;2.40;99.90;;;;;;5032478;28;20118;-77
2024/01/28 05:44:48;;;;;;;17.05;8.85;;;2.40;99.90;;;;;;5033616;28;20479;-82
2024/01/28 05:47:14;;;;;;;20.58;8.35;;;2.40;99.90;;;;;;5033740;28;20471;-82
2024/01/28 05:49:40;;;;;;;12.85;7.30;;;2.60;99.90;;;;;;5030181;28;20444;-82
2024/01/28 05:52:06;;;;;;;22.58;8.88;;;2.40;99.90;;;;;;5032054;28;20060;-81
2024/01/28 05:54:32;;;;;;;23.40;9.30;;;2.40;99.90;;;;;;5032673;28;20038;-82
2024/01/28 05:56:59;;;;;;;18.65;9.43;;;2.60;99.90;;;;;;5033488;28;20041;-82
2024/01/28 05:59:25;;;;;;;19.70;8.63;;;2.30;99.90;;;;;;5061484;28;20033;-76
2024/01/28 06:01:50;;;;;;;17.70;7.97;;;2.30;99.90;;;;;;5031443;28;20502;-83
2024/01/28 06:04:16;;;;;;;23.38;8.20;;;2.30;99.90;;;;;;5032856;28;20487;-82
2024/01/28 06:06:42;;;;;;;19.00;9.15;;;2.30;99.90;;;;;;5047877;28;20115;-82
2024/01/28 06:09:09;;;;;;;19.42;9.30;;;2.30;99.90;;;;;;5031525;28;20050;-82
2024/01/28 06:11:36;;;;;;;18.60;9.70;;;2.20;99.90;;;;;;5044212;28;20323;-82
2024/01/28 06:14:02;;;;;;;18.35;8.57;;;2.20;99.90;;;;;;5019241;28;20487;-82
2024/01/28 06:16:28;;;;;;;19.55;8.13;;;2.20;99.90;;;;;;5046383;28;20046;-76
2024/01/28 06:18:53;;;;;;;22.30;8.48;;;2.20;99.90;;;;;;5014618;28;20041;-82
2024/01/28 06:21:19;;;;;;;18.02;8.00;;;2.30;99.90;;;;;;5019016;28;20044;-82
2024/01/28 06:23:45;;;;;;;20.17;9.10;;;2.60;99.90;;;;;;5024173;28;20044;-82
2024/01/28 06:26:10;;;;;;;18.38;9.27;;;2.20;99.90;;;;;;5016864;28;20046;-81
2024/01/28 06:28:36;;;;;;;16.60;8.88;;;2.10;99.90;;;;;;5013178;28;20073;-82
2024/01/28 06:31:02;;;;;;;15.13;8.15;;;2.10;99.90;;;;;;5015880;28;20384;-82
2024/01/28 06:33:28;;;;;;;19.33;8.23;;;2.10;99.90;;;;;;5030908;28;20114;-82
2024/01/28 06:35:54;;;;;;;17.42;8.38;;;2.00;99.90;;;;;;5032330;28;20054;-82
2024/01/28 06:38:19;;;;;;;19.33;8.70;;;2.00;99.90;;;;;;5048134;28;20042;-82
2024/01/28 06:40:45;;;;;;;20.88;9.50;;;2.00;99.90;;;;;;5029451;28;20494;-81
2024/01/28 06:43:11;;;;;;;24.13;9.02;;;2.00;99.90;;;;;;5031834;28;20041;-82
2024/01/28 06:45:36;;;;;;;22.65;9.25;;;2.00;99.90;;;;;;5030301;28;20048;-82
2024/01/28 06:48:02;;;;;;;18.83;8.55;;;2.00;99.90;;;;;;5030986;28;20049;-82
2024/01/28 06:50:28;;;;;;;17.85;7.47;;;1.90;99.90;;;;;;5031914;28;20504;-81
2024/01/28 06:52:54;;;;;;;23.25;9.63;;;1.90;99.90;;;;;;5025788;28;20044;-82
2024/01/28 06:55:19;;;;;;;19.45;8.43;;;1.90;99.90;;;;;;5018687;28;20041;-82
2024/01/28 06:57:46;;;;;;;15.55;7.28;;;1.90;99.90;;;;;;5042265;28;20120;-82
2024/01/28 07:00:13;;;;;;;15.57;7.90;;;1.80;99.90;;;;;;5030898;28;20041;-82
2024/01/28 07:02:39;;;;;;;19.38;9.25;;;1.80;99.90;;;;;;5024886;28;20072;-82
2024/01/28 07:05:05;;;;;;;21.40;7.63;;;1.80;99.90;;;;;;5043997;28;20049;-82
2024/01/28 07:07:31;;;;;;;14.20;8.63;;;1.80;99.90;;;;;;5027233;28;20045;-82
2024/01/28 07:09:57;;;;;;;15.60;8.57;;;1.80;99.90;;;;;;5025895;28;20049;-80
2024/01/28 07:12:22;;;;;;;18.35;9.25;;;1.80;99.90;;;;;;5031235;28;20050;-79
2024/01/28 07:14:48;;;;;;;19.60;9.30;;;1.70;99.90;;;;;;5045961;28;20029;-80
2024/01/28 07:17:14;;;;;;;20.50;10.10;;;1.70;99.90;;;;;;5028655;28;20507;-82
2024/01/28 07:19:41;;;;;;;21.42;8.85;;;1.70;99.90;;;;;;5057754;28;20383;-81
2024/01/28 07:22:07;;;;;;;16.27;7.90;;;1.60;99.90;;;;;;5027637;28;20046;-82
2024/01/28 07:24:33;;;;;;;16.67;8.27;;;1.70;99.90;;;;;;5027797;28;20052;-82
2024/01/28 07:26:58;;;;;;;19.67;9.48;;;1.60;99.90;;;;;;5025873;28;20124;-79
2024/01/28 07:29:24;;;;;;;16.38;8.35;;;1.60;99.90;;;;;;5028703;28;20506;-82
2024/01/28 07:31:51;;;;;;;19.38;9.48;;;1.60;99.90;;;;;;5024293;28;20046;-82
2024/01/28 07:34:19;;;;;;;23.98;10.07;;;1.70;99.90;;;;;;5037242;28;20391;-82
2024/01/28 07:36:47;;;;;;;16.02;9.07;;;1.60;99.90;;;;;;5013056;28;20061;-82
2024/01/28 07:39:14;;;;;;;21.20;9.40;;;1.50;99.90;;;;;;5029898;28;20106;-82
2024/01/28 07:41:41;;;;;;;22.17;9.40;;;1.50;99.90;;;;;;5029628;28;20068;-76
2024/01/28 07:44:07;;;;;;;20.85;9.60;;;1.50;99.90;;;;;;5016066;28;20184;-82
2024/01/28 07:46:32;;;;;;;18.13;9.25;;;1.50;99.90;;;;;;5023200;28;20526;-82
2024/01/28 07:48:58;;;;;;;15.88;9.75;;;1.40;99.90;;;;;;5021767;28;20053;-82
2024/01/28 07:51:24;;;;;;;19.70;9.57;;;1.40;99.90;;;;;;5026585;28;20041;-82
2024/01/28 07:53:49;;;;;;;15.68;9.38;;;1.40;99.90;;;;;;5025079;28;20471;-82
2024/01/28 07:56:16;;;;;;;18.52;8.75;;;1.40;99.90;;;;;;5012766;28;20383;-82
2024/01/28 07:58:42;;;;;;;15.77;9.45;;;2.10;99.90;;;;;;5018798;28;20045;-77
2024/01/28 08:01:08;;;;;;;18.58;9.07;;;1.50;99.90;;;;;;5022295;28;20053;-82
2024/01/28 08:03:33;;;;;;;19.13;9.35;;;1.50;99.90;;;;;;5025800;28;20101;-82
2024/01/28 08:05:59;;;;;;;20.42;8.63;;;1.90;99.90;;;;;;5038417;28;20121;-79
2024/01/28 08:08:25;;;;;;;19.42;8.80;;;1.60;99.90;;;;;;5023119;28;20050;-82
2024/01/28 08:10:51;;;;;;;17.60;8.27;;;1.70;99.90;;;;;;5054403;28;20120;-81
2024/01/28 08:13:19;;;;;;;14.63;8.27;;;1.70;99.90;;;;;;5029019;28;20049;-82
2024/01/28 08:15:45;;;;;;;16.13;8.73;;;1.70;99.90;;;;;;5047758;28;20056;-76
2024/01/28 08:18:11;;;;;;;15.93;8.43;;;1.80;99.90;;;;;;5017532;28;20395;-81
2024/01/28 08:20:37;;;;;;;16.08;7.35;;;1.80;99.90;;;;;;5028011;28;20162;-81
2024/01/28 08:23:04;;;;;;;16.30;7.18;;;1.80;99.90;;;;;;5050258;28;20068;-82
2024/01/28 08:25:29;;;;;;;15.13;7.55;;;1.80;99.90;;;;;;5035188;28;20049;-82
2024/01/28 08:27:56;;;;;;;14.02;7.93;;;2.00;99.90;;;;;;5023453;28;20123;-84
2024/01/28 08:30:23;;;;;;;17.08;8.30;;;1.90;99.90;;;;;;5029735;28;20108;-81
2024/01/28 08:32:50;;;;;;;17.27;8.07;;;1.90;99.90;;;;;;5029235;28;20449;-78
2024/01/28 08:35:17;;;;;;;16.67;8.80;;;1.90;99.90;;;;;;5066946;28;20093;-81
2024/01/28 08:37:42;;;;;;;17.48;8.95;;;1.80;99.90;;;;;;5046214;28;20041;-83
2024/01/28 08:40:09;;;;;;;18.05;9.45;;;1.80;99.90;;;;;;5030097;28;20067;-82
2024/01/28 08:42:35;;;;;;;12.77;7.78;;;1.80;99.90;;;;;;5018009;28;20053;-82
2024/01/28 08:45:00;;;;;;;21.55;8.68;;;1.70;99.90;;;;;;5016807;28;20045;-82
2024/01/28 08:47:26;;;;;;;15.85;9.02;;;1.80;99.90;;;;;;5019157;28;20045;-80
2024/01/28 08:49:52;;;;;;;14.45;8.63;;;2.50;99.90;;;;;;5026119;28;20133;-79
2024/01/28 08:52:20;;;;;;;13.60;8.40;;;1.80;99.90;;;;;;5030870;28;20085;-80
2024/01/28 08:54:46;;;;;;;18.55;9.38;;;1.90;99.90;;;;;;5029502;28;20072;-80
2024/01/28 08:57:12;;;;;;;16.65;8.10;;;1.90;99.90;;;;;;5028562;28;20064;-80
2024/01/28 08:59:38;;;;;;;17.27;7.78;;;1.90;99.90;;;;;;5061351;28;20033;-80
2024/01/28 09:02:04;;;;;;;19.67;9.15;;;2.00;99.90;;;;;;5029325;28;20064;-82
2024/01/28 09:04:30;;;;;;;15.68;8.57;;;2.00;99.90;;;;;;5025573;28;20061;-79
2024/01/28 09:06:56;;;;;;;14.55;8.18;;;2.10;99.90;;;;;;5022203;28;20093;-78
2024/01/28 09:09:22;;;;;;;15.88;8.15;;;2.10;99.90;;;;;;5021454;28;20073;-80
2024/01/28 09:11:47;;;;;;;17.42;8.48;;;2.10;99.90;;;;;;5026442;28;20046;-80
2024/01/28 09:14:13;;;;;;;21.55;8.75;;;2.30;99.90;;;;;;5018656;28;20451;-82
2024/01/28 09:16:39;;;;;;;14.90;7.70;;;2.20;99.90;;;;;;5022477;28;20052;-80
2024/01/28 09:19:05;;;;;;;18.38;7.82;;;2.30;99.90;;;;;;5030826;28;20045;-82
2024/01/28 09:21:31;;;;;;;18.88;7.50;;;2.30;99.90;;;;;;5028025;28;20052;-81
2024/01/28 09:23:57;;;;;;;11.80;7.30;;;2.30;99.90;;;;;;5015596;28;20069;-77
2024/01/28 09:26:24;;;;;;;14.75;6.78;;;2.40;99.90;;;;;;5020194;28;20487;-82
2024/01/28 09:28:50;;;;;;;12.82;6.30;;;2.50;99.90;;;;;;5049492;28;20391;-81
2024/01/28 09:31:15;;;;;;;11.80;7.38;;;2.60;99.90;;;;;;5053093;28;20045;-81
2024/01/28 09:33:42;;;;;;;16.33;7.93;;;2.70;99.90;;;;;;5015507;28;20033;-81
2024/01/28 09:36:09;;;;;;;12.60;6.65;;;2.80;99.90;;;;;;5031905;28;20360;-80
2024/01/28 09:38:34;;;;;;;13.32;6.25;;;2.90;99.90;;;;;;5048452;28;20057;-81
2024/01/28 09:41:24;;;;;;;10.50;5.43;;;3.00;99.90;;;;;;5031424;28;20045;-81
2024/01/28 09:43:50;;;;;;;11.77;5.85;;;3.20;99.90;;;;;;5033507;28;20067;-82
2024/01/28 09:46:16;;;;;;;10.77;5.78;;;3.40;99.90;;;;;;5032030;28;20053;-82
2024/01/28 09:48:46;;;;;;;12.93;6.28;;;3.60;99.90;;;;;;5031855;28;20364;-82
2024/01/28 09:51:13;;;;;;;9.77;5.55;;;3.80;99.90;;;;;;5006565;28;20049;-83
2024/01/28 09:53:41;;;;;;;12.05;4.35;;;4.00;99.90;;;;;;4999073;28;20042;-83
2024/01/28 09:56:10;;;;;;;11.50;4.65;;;4.10;99.90;;;;;;5020721;28;20471;-78
2024/01/28 09:58:37;;;;;;;10.30;4.63;;;4.30;99.90;;;;;;5017739;28;21708;-86
2024/01/28 10:01:04;;;;;;;7.53;4.00;;;4.50;99.90;;;;;;5012710;28;20049;-82
2024/01/28 10:03:31;;;;;;;9.68;4.15;;;4.50;99.90;;;;;;5015009;28;20054;-84
2024/01/28 10:05:57;;;;;;;7.70;3.95;;;4.60;99.90;;;;;;5015890;28;20129;-85
2024/01/28 10:08:26;;;;;;;12.48;4.70;;;4.70;99.90;;;;;;5022013;28;20353;-85
2024/01/28 10:10:55;;;;;;;7.95;4.10;;;4.80;99.90;;;;;;5034279;28;20038;-86
2024/01/28 10:13:21;;;;;;;10.35;4.38;;;4.90;99.90;;;;;;5021939;28;20041;-84
2024/01/28 10:15:56;;;;;;;11.95;3.83;;;4.90;99.90;;;;;;5027233;28;20060;-83
2024/01/28 10:18:23;;;;;;;8.10;4.05;;;4.90;99.90;;;;;;5026865;28;20059;-84
2024/01/28 10:20:50;;;;;;;9.38;3.45;;;4.90;99.90;;;;;;5043226;28;20124;-84
2024/01/28 10:23:16;;;;;;;7.90;3.53;;;4.90;99.90;;;;;;5008600;28;20044;-86
2024/01/28 10:25:46;;;;;;;5.20;2.97;;;4.90;99.90;;;;;;5065835;28;20471;-85
2024/01/28 10:28:12;;;;;;;7.47;3.60;;;4.90;99.90;;;;;;5065002;28;20033;-84
2024/01/28 10:30:39;;;;;;;7.18;3.63;;;4.90;99.90;;;;;;5032571;28;20153;-84
2024/01/28 10:33:07;;;;;;;7.35;3.58;;;5.00;99.90;;;;;;5066942;28;20095;-75
2024/01/28 10:35:32;;;;;;;9.52;3.90;;;5.20;99.90;;;;;;5049197;28;20076;-83
2024/01/28 10:37:59;;;;;;;10.52;3.40;;;5.10;99.90;;;;;;5048453;28;20064;-85
2024/01/28 10:40:32;;;;;;;6.35;3.08;;;5.20;99.90;;;;;;5014742;28;20084;-84
2024/01/28 10:43:00;;;;;;;8.70;3.60;;;5.30;99.90;;;;;;5032673;28;20429;-83
2024/01/28 10:45:27;;;;;;;10.15;4.25;;;5.30;99.90;;;;;;5056948;28;20048;-84
2024/01/28 10:47:55;;;;;;;6.65;2.90;;;5.40;99.90;;;;;;5035772;28;20041;-83
2024/01/28 10:50:24;;;;;;;7.32;3.38;;;5.40;99.90;;;;;;5021339;28;20060;-83
2024/01/28 10:52:51;;;;;;;6.75;3.65;;;5.50;99.90;;;;;;5019213;28;20041;-84
2024/01/28 10:55:20;;;;;;;6.78;3.15;;;5.60;99.90;;;;;;5027582;28;20037;-82
2024/01/28 10:57:47;;;;;;;9.50;3.97;;;5.60;99.90;;;;;;5042317;28;20387;-87
2024/01/28 11:00:16;;;;;;;8.38;3.88;;;5.60;99.90;;;;;;5024375;28;20037;-83
2024/01/28 11:02:42;;;;;;;8.20;3.25;;;5.70;99.90;;;;;;5028685;28;20045;-81
2024/01/28 11:05:09;;;;;;;7.30;3.28;;;6.00;99.90;;;;;;5018358;28;20033;-81
2024/01/28 11:07:36;;;;;;;9.63;3.17;;;5.80;99.90;;;;;;5028607;28;20045;-82
2024/01/28 11:10:05;;;;;;;6.07;2.92;;;5.90;99.90;;;;;;5025055;28;20074;-84
2024/01/28 11:12:30;;;;;;;5.85;3.17;;;6.00;99.90;;;;;;5030831;28;20075;-83
2024/01/28 11:15:00;;;;;;;8.63;3.15;;;6.00;99.90;;;;;;5025244;28;20422;-83
2024/01/28 11:17:33;;;;;;;6.88;2.85;;;6.50;99.90;;;;;;5028555;28;20037;-83
2024/01/28 11:20:17;;;;;;;5.45;2.85;;;6.20;99.90;;;;;;5059834;28;20442;-83
2024/01/28 11:22:54;;;;;;;10.55;3.53;;;6.20;99.90;;;;;;5027527;28;20148;-85
2024/01/28 11:25:21;;;;;;;7.93;2.47;;;6.30;99.90;;;;;;5028042;28;20049;-82
2024/01/28 11:27:51;;;;;;;7.47;2.95;;;6.40;99.90;;;;;;5025786;28;20125;-83
2024/01/28 11:30:24;;;;;;;6.85;3.00;;;6.40;99.90;;;;;;5013301;28;20069;-81
2024/01/28 11:32:53;;;;;;;4.07;2.55;;;6.50;99.90;;;;;;5029923;28;20064;-83
2024/01/28 11:35:19;;;;;;;7.07;2.75;;;6.60;99.90;;;;;;5026870;28;20549;-83
2024/01/28 11:37:57;;;;;;;7.97;3.30;;;6.70;99.90;;;;;;5037915;28;20168;-83
2024/01/28 11:40:47;;;;;;;7.13;2.78;;;6.70;99.90;;;;;;5029862;28;20056;-83
2024/01/28 11:43:13;;;;;;;4.85;2.72;;;6.80;99.90;;;;;;5025218;28;20116;-82
2024/01/28 11:45:39;;;;;;;4.50;2.30;;;6.80;99.90;;;;;;5035056;28;20120;-81
2024/01/28 11:48:09;;;;;;;8.77;2.72;;;6.90;99.90;;;;;;5011415;28;20411;-81
2024/01/28 11:50:35;;;;;;;6.25;2.40;;;6.90;99.90;;;;;;5032359;28;20057;-81
2024/01/28 11:53:01;;;;;;;6.43;2.75;;;7.00;99.90;;;;;;5020712;28;20099;-81
2024/01/28 11:55:27;;;;;;;4.75;2.20;;;7.00;99.90;;;;;;5029393;28;20498;-83
2024/01/28 11:57:53;;;;;;;5.50;2.22;;;7.10;99.90;;;;;;5028397;28;20042;-83
2024/01/28 12:00:19;;;;;;;9.02;3.13;;;7.10;99.90;;;;;;5036028;28;20479;-76
2024/01/28 12:02:45;;;;;;;8.90;2.40;;;7.20;99.90;;;;;;5024986;28;20054;-82
2024/01/28 12:05:11;;;;;;;5.20;2.28;;;7.20;99.90;;;;;;5025890;28;20460;-86
2024/01/28 12:07:37;;;;;;;4.43;2.40;;;7.20;99.90;;;;;;5030307;28;20159;-84
2024/01/28 12:10:07;;;;;;;5.97;2.25;;;7.30;99.90;;;;;;5024661;28;20037;-82
2024/01/28 12:12:34;;;;;;;5.75;2.55;;;7.30;99.90;;;;;;5018123;28;20056;-84
2024/01/28 12:15:05;;;;;;;4.82;2.50;;;7.30;99.90;;;;;;5025061;28;20479;-83
2024/01/28 12:17:38;;;;;;;9.80;3.10;;;7.40;99.90;;;;;;5031193;28;20080;-81
2024/01/28 12:20:05;;;;;;;6.47;2.50;;;7.40;99.90;;;;;;5024150;28;20029;-74
2024/01/28 12:22:38;;;;;;;5.60;2.85;;;7.50;99.90;;;;;;5014834;28;20049;-82
2024/01/28 12:25:12;;;;;;;7.47;2.80;;;7.50;99.90;;;;;;5033793;28;20068;-79
2024/01/28 12:27:39;;;;;;;5.55;2.30;;;7.60;99.90;;;;;;5016278;28;20045;-80
2024/01/28 12:30:12;;;;;;;6.00;2.80;;;7.70;99.90;;;;;;5032162;28;20056;-80
2024/01/28 12:32:38;;;;;;;6.93;2.42;;;7.70;99.90;;;;;;5052247;28;20056;-80
2024/01/28 12:35:07;;;;;;;9.85;2.83;;;7.80;99.90;;;;;;5034650;28;20041;-81
2024/01/28 12:37:33;;;;;;;6.32;2.58;;;7.80;99.90;;;;;;5034925;28;20041;-81
2024/01/28 12:39:59;;;;;;;5.28;2.58;;;7.80;99.90;;;;;;5034727;28;20385;-80
2024/01/28 12:42:25;;;;;;;9.07;2.83;;;7.90;99.90;;;;;;5021224;28;20050;-75
2024/01/28 12:44:51;;;;;;;5.97;2.55;;;7.90;99.90;;;;;;5029102;28;20033;-82